createdAt,value
2022-08-02T00:00:55.565Z,1004.58844
2022-08-02T00:01:53.000Z,1004.505127
2022-08-02T00:02:48.945Z,1004.579468
2022-08-02T00:03:53.254Z,1004.650635
2022-08-02T00:04:49.191Z,1004.542786
2022-08-02T00:05:53.118Z,1004.590454
2022-08-02T00:06:47.300Z,1004.632446
2022-08-02T00:07:47.919Z,1004.512634
2022-08-02T00:08:44.083Z,1004.490723
2022-08-02T00:09:43.983Z,1004.527832
2022-08-02T00:10:40.559Z,1004.58374
2022-08-02T00:11:45.633Z,1004.58844
2022-08-02T00:12:42.157Z,1004.572327
2022-08-02T00:13:44.475Z,1004.60376
2022-08-02T00:14:37.010Z,1004.536255
2022-08-02T00:15:37.304Z,1004.616394
2022-08-02T00:16:38.578Z,1004.575928
2022-08-02T00:17:40.400Z,1004.592163
2022-08-02T00:18:37.246Z,1004.658264
2022-08-02T00:19:46.102Z,1004.63623
2022-08-02T00:20:39.311Z,1004.630493
2022-08-02T00:21:44.948Z,1004.665466
2022-08-02T00:22:41.680Z,1004.676941
2022-08-02T00:24:03.225Z,1004.652527
2022-08-02T00:24:28.099Z,1004.652527
2022-08-02T00:24:28.276Z,1004.652527
2022-08-02T00:24:41.415Z,1004.658264
2022-08-02T00:25:54.952Z,1004.608459
2022-08-02T00:25:55.030Z,1004.608459
2022-08-02T00:25:55.131Z,1004.608459
2022-08-02T00:26:40.488Z,1004.595459
2022-08-02T00:27:38.429Z,1004.631409
2022-08-02T00:28:41.000Z,1004.539856
2022-08-02T00:29:35.173Z,1004.51532
2022-08-02T00:29:50.368Z,1004.51532
2022-08-02T00:29:52.608Z,1004.51532
2022-08-02T00:30:35.237Z,1004.579224
2022-08-02T00:31:30.673Z,1004.601196
2022-08-02T00:32:31.314Z,1004.615173
2022-08-02T00:34:26.817Z,1004.566589
2022-08-02T00:34:28.313Z,1004.566589
2022-08-02T00:34:28.495Z,1004.566589
2022-08-02T00:34:33.011Z,1004.558289
2022-08-02T00:34:37.919Z,1004.558289
2022-08-02T00:35:26.376Z,1004.548828
2022-08-02T00:36:23.366Z,1004.484985
2022-08-02T00:38:21.653Z,1004.455017
2022-08-02T00:39:33.482Z,1004.486389
2022-08-02T00:39:33.955Z,1004.486389
2022-08-02T00:39:34.939Z,1004.486389
2022-08-02T00:40:31.137Z,1004.574524
2022-08-02T00:41:35.260Z,1004.558289
2022-08-02T00:43:31.512Z,1004.544556
2022-08-02T00:44:27.119Z,1004.506409
2022-08-02T00:46:02.189Z,1004.468201
2022-08-02T00:46:02.255Z,1004.468201
2022-08-02T00:46:02.546Z,1004.468201
2022-08-02T00:47:25.581Z,1004.523621
2022-08-02T00:48:24.078Z,1004.495483
2022-08-02T00:49:25.121Z,1004.487488
2022-08-02T00:50:22.241Z,1004.393433
2022-08-02T00:52:07.992Z,1004.462952
2022-08-02T00:53:48.953Z,1004.415405
2022-08-02T00:54:48.717Z,1004.438843
2022-08-02T00:55:42.982Z,1004.472473
2022-08-02T00:56:49.684Z,1004.512207
2022-08-02T00:56:49.998Z,1004.512207
2022-08-02T00:57:41.556Z,1004.45874
2022-08-02T00:58:37.893Z,1004.485474
2022-08-02T00:59:37.636Z,1004.436768
2022-08-02T01:00:37.144Z,1004.502808
2022-08-02T01:01:32.617Z,1004.552979
2022-08-02T01:02:33.156Z,1004.507507
2022-08-02T01:03:28.401Z,1004.493835
2022-08-02T01:04:32.241Z,1004.586548
2022-08-02T01:05:29.667Z,1004.492798
2022-08-02T01:06:26.156Z,1004.521667
2022-08-02T01:07:32.455Z,1004.484558
2022-08-02T01:08:29.568Z,1004.505371
2022-08-02T01:09:29.560Z,1004.513672
2022-08-02T01:10:22.272Z,1004.529907
2022-08-02T01:11:25.789Z,1004.564514
2022-08-02T01:12:20.259Z,1004.492798
2022-08-02T01:14:18.275Z,1004.540283
2022-08-02T01:15:15.638Z,1004.540283
2022-08-02T01:16:17.059Z,1004.511169
2022-08-02T01:17:13.144Z,1004.484558
2022-08-02T01:19:16.170Z,1004.397644
2022-08-02T01:20:13.927Z,1004.498291
2022-08-02T01:21:11.072Z,1004.447449
2022-08-02T01:22:14.245Z,1004.383606
2022-08-02T01:23:16.747Z,1004.360474
2022-08-02T01:24:19.966Z,1004.336304
2022-08-02T01:25:20.934Z,1004.356873
2022-08-02T01:26:16.490Z,1004.431152
2022-08-02T01:27:18.381Z,1004.318726
2022-08-02T01:28:13.774Z,1004.316223
2022-08-02T01:29:11.820Z,1004.414978
2022-08-02T01:30:18.206Z,1004.380005
2022-08-02T01:31:15.283Z,1004.382507
2022-08-02T01:32:13.689Z,1004.331421
2022-08-02T01:33:09.379Z,1004.366333
2022-08-02T01:34:12.572Z,1004.344299
2022-08-02T01:35:08.186Z,1004.352356
2022-08-02T01:36:08.247Z,1004.293152
2022-08-02T01:37:03.535Z,1004.303589
2022-08-02T01:38:00.386Z,1004.354736
2022-08-02T01:39:04.075Z,1004.252808
2022-08-02T01:39:56.064Z,1004.316589
2022-08-02T01:41:00.076Z,1004.300293
2022-08-02T01:42:28.650Z,1004.271179
2022-08-02T01:43:08.165Z,1004.248108
2022-08-02T01:44:08.110Z,1004.270081
2022-08-02T01:45:08.350Z,1004.277954
2022-08-02T01:46:04.232Z,1004.270081
2022-08-02T01:47:06.871Z,1004.218933
2022-08-02T01:48:04.992Z,1004.218933
2022-08-02T01:49:02.768Z,1004.223572
2022-08-02T01:50:07.899Z,1004.177429
2022-08-02T01:51:08.528Z,1004.270081
2022-08-02T01:52:05.104Z,1004.200439
2022-08-02T01:54:00.893Z,1004.192505
2022-08-02T01:55:00.662Z,1004.248108
2022-08-02T01:55:59.093Z,1004.229675
2022-08-02T01:56:59.581Z,1004.240173
2022-08-02T01:58:56.637Z,1004.200439
2022-08-02T01:59:51.085Z,1004.245911
2022-08-02T02:00:49.028Z,1004.296692
2022-08-02T02:01:48.785Z,1004.202942
2022-08-02T02:02:46.229Z,1004.200439
2022-08-02T02:03:49.571Z,1004.285156
2022-08-02T02:04:44.729Z,1004.271423
2022-08-02T02:05:46.148Z,1004.154358
2022-08-02T02:06:43.869Z,1004.209839
2022-08-02T02:07:43.033Z,1004.231873
2022-08-02T02:08:38.794Z,1004.250549
2022-08-02T02:09:50.197Z,1004.193604
2022-08-02T02:09:51.041Z,1004.193604
2022-08-02T02:10:46.975Z,1004.212341
2022-08-02T02:12:06.256Z,1004.175232
2022-08-02T02:12:11.479Z,1004.175232
2022-08-02T02:12:14.715Z,1004.175232
2022-08-02T02:12:42.165Z,1004.20874
2022-08-02T02:13:40.686Z,1004.177429
2022-08-02T02:14:49.982Z,1004.161255
2022-08-02T02:14:51.460Z,1004.161255
2022-08-02T02:15:38.577Z,1004.142517
2022-08-02T02:16:33.641Z,1004.150757
2022-08-02T02:17:50.660Z,1004.172791
2022-08-02T02:17:52.855Z,1004.172791
2022-08-02T02:18:10.853Z,1004.172791
2022-08-02T02:18:32.377Z,1004.170288
2022-08-02T02:19:33.532Z,1004.151855
2022-08-02T02:20:31.972Z,1004.162354
2022-08-02T02:21:29.428Z,1004.174927
2022-08-02T02:22:33.011Z,1004.14032
2022-08-02T02:23:35.547Z,1004.065002
2022-08-02T02:24:28.531Z,1004.122986
2022-08-02T02:25:36.170Z,1004.125183
2022-08-02T02:25:36.453Z,1004.125183
2022-08-02T02:25:41.814Z,1004.125183
2022-08-02T02:26:30.957Z,1004.122986
2022-08-02T02:27:26.225Z,1004.193604
2022-08-02T02:28:28.909Z,1004.134521
2022-08-02T02:29:23.768Z,1004.085938
2022-08-02T02:30:23.467Z,1004.154358
2022-08-02T02:31:19.866Z,1004.062805
2022-08-02T02:32:23.071Z,1004.095215
2022-08-02T02:33:21.240Z,1004.114746
2022-08-02T02:34:23.015Z,1004.143921
2022-08-02T02:35:26.884Z,1004.164795
2022-08-02T02:36:21.921Z,1004.121887
2022-08-02T02:37:21.443Z,1004.04187
2022-08-02T02:39:16.899Z,1004.091614
2022-08-02T02:40:14.857Z,1004.053467
2022-08-02T02:41:14.142Z,1004.031433
2022-08-02T02:42:12.591Z,1004.076721
2022-08-02T02:44:07.457Z,1004.097656
2022-08-02T02:45:04.487Z,1004.019836
2022-08-02T02:46:56.439Z,1004.004761
2022-08-02T02:47:40.417Z,1004.04657
2022-08-02T02:48:37.786Z,1003.96405
2022-08-02T02:49:47.137Z,1004.009521
2022-08-02T02:50:43.288Z,1003.979248
2022-08-02T02:51:45.372Z,1003.946777
2022-08-02T02:54:30.113Z,1003.853027
2022-08-02T02:54:31.015Z,1003.853027
2022-08-02T02:54:32.170Z,1003.853027
2022-08-02T02:54:43.361Z,1003.885498
2022-08-02T02:55:39.855Z,1003.872559
2022-08-02T02:56:41.811Z,1003.864685
2022-08-02T02:57:36.361Z,1003.862183
2022-08-02T02:58:37.875Z,1003.858887
2022-08-02T02:59:33.108Z,1003.812317
2022-08-02T03:00:33.780Z,1003.798584
2022-08-02T03:01:55.353Z,1003.848389
2022-08-02T03:01:55.602Z,1003.848389
2022-08-02T03:01:56.575Z,1003.848389
2022-08-02T03:02:32.064Z,1003.720886
2022-08-02T03:03:27.954Z,1003.77771
2022-08-02T03:04:27.657Z,1003.779907
2022-08-02T03:04:55.620Z,1003.779907
2022-08-02T03:04:56.192Z,1003.779907
2022-08-02T03:05:25.887Z,1003.779907
2022-08-02T03:06:24.967Z,1003.812317
2022-08-02T03:07:29.661Z,1003.735962
2022-08-02T03:09:27.170Z,1003.732361
2022-08-02T03:10:23.537Z,1003.7453
2022-08-02T03:11:29.004Z,1003.778809
2022-08-02T03:12:32.001Z,1003.778809
2022-08-02T03:12:32.276Z,1003.778809
2022-08-02T03:13:33.047Z,1003.815918
2022-08-02T03:13:33.306Z,1003.815918
2022-08-02T03:13:37.552Z,1003.815918
2022-08-02T03:14:26.451Z,1003.770874
2022-08-02T03:15:21.239Z,1003.680481
2022-08-02T03:16:23.501Z,1003.70929
2022-08-02T03:17:16.020Z,1003.746399
2022-08-02T03:19:10.619Z,1003.718567
2022-08-02T03:20:09.737Z,1003.723267
2022-08-02T03:21:06.186Z,1003.789429
2022-08-02T03:22:10.445Z,1003.757019
2022-08-02T03:24:09.150Z,1003.820801
2022-08-02T03:25:09.493Z,1003.769592
2022-08-02T03:26:05.687Z,1003.852051
2022-08-02T03:27:09.086Z,1003.784668
2022-08-02T03:28:01.352Z,1003.852051
2022-08-02T03:29:01.772Z,1003.800842
2022-08-02T03:29:10.168Z,1003.800842
2022-08-02T03:30:00.380Z,1003.870361
2022-08-02T03:30:56.019Z,1003.894836
2022-08-02T03:31:53.267Z,1003.870361
2022-08-02T03:32:56.561Z,1003.8125
2022-08-02T03:33:50.830Z,1003.782471
2022-08-02T03:34:52.392Z,1003.856567
2022-08-02T03:36:37.329Z,1003.822876
2022-08-02T03:37:19.537Z,1003.811401
2022-08-02T03:38:16.642Z,1003.734863
2022-08-02T03:39:16.045Z,1003.704834
2022-08-02T03:40:12.359Z,1003.71991
2022-08-02T03:41:11.956Z,1003.644714
2022-08-02T03:42:10.694Z,1003.630554
2022-08-02T03:42:15.661Z,1003.630554
2022-08-02T03:44:03.573Z,1003.612183
2022-08-02T03:45:08.723Z,1003.555298
2022-08-02T03:45:59.849Z,1003.573914
2022-08-02T03:46:57.432Z,1003.549561
2022-08-02T03:48:02.869Z,1003.590149
2022-08-02T03:48:33.802Z,1003.590149
2022-08-02T03:48:33.803Z,1003.590149
2022-08-02T03:49:02.503Z,1003.526489
2022-08-02T03:50:04.592Z,1003.593506
2022-08-02T03:50:57.853Z,1003.601746
2022-08-02T03:51:57.762Z,1003.593506
2022-08-02T03:52:55.685Z,1003.64679
2022-08-02T03:53:57.809Z,1003.696716
2022-08-02T03:54:53.195Z,1003.701416
2022-08-02T03:55:56.008Z,1003.705933
2022-08-02T03:56:48.890Z,1003.671082
2022-08-02T03:57:45.046Z,1003.74884
2022-08-02T03:58:49.272Z,1003.663147
2022-08-02T03:59:42.254Z,1003.718567
2022-08-02T04:00:43.006Z,1003.702332
2022-08-02T04:01:39.522Z,1003.766113
2022-08-02T04:02:42.800Z,1003.774353
2022-08-02T04:03:40.930Z,1003.792664
2022-08-02T04:04:47.172Z,1003.760315
2022-08-02T04:06:01.016Z,1003.736084
2022-08-02T04:06:03.367Z,1003.736084
2022-08-02T04:06:04.053Z,1003.736084
2022-08-02T04:06:44.703Z,1003.726868
2022-08-02T04:08:42.937Z,1003.714111
2022-08-02T04:09:35.365Z,1003.740784
2022-08-02T04:10:40.197Z,1003.726746
2022-08-02T04:11:34.605Z,1003.755798
2022-08-02T04:12:37.029Z,1003.745483
2022-08-02T04:14:43.373Z,1003.711731
2022-08-02T04:15:26.441Z,1003.766113
2022-08-02T04:16:25.451Z,1003.739441
2022-08-02T04:17:26.730Z,1003.731567
2022-08-02T04:18:29.680Z,1003.723267
2022-08-02T04:19:34.251Z,1003.660767
2022-08-02T04:20:32.395Z,1003.726746
2022-08-02T04:21:48.593Z,1003.776733
2022-08-02T04:21:51.134Z,1003.776733
2022-08-02T04:21:51.201Z,1003.776733
2022-08-02T04:23:36.023Z,1003.785767
2022-08-02T04:24:34.381Z,1003.802002
2022-08-02T04:25:40.595Z,1003.775391
2022-08-02T04:26:37.187Z,1003.794067
2022-08-02T04:27:50.478Z,1003.824036
2022-08-02T04:27:50.596Z,1003.824036
2022-08-02T04:29:33.556Z,1003.863464
2022-08-02T04:30:35.476Z,1003.770874
2022-08-02T04:31:33.710Z,1003.803284
2022-08-02T04:32:38.338Z,1003.832214
2022-08-02T04:33:35.998Z,1003.834595
2022-08-02T04:34:37.374Z,1003.892578
2022-08-02T04:35:34.386Z,1003.843933
2022-08-02T04:36:42.433Z,1003.838135
2022-08-02T04:37:36.923Z,1003.862366
2022-08-02T04:38:39.132Z,1003.872681
2022-08-02T04:39:35.277Z,1003.891418
2022-08-02T04:40:36.692Z,1003.88562
2022-08-02T04:41:34.751Z,1003.8078
2022-08-02T04:41:44.027Z,1003.8078
2022-08-02T04:43:37.471Z,1003.830933
2022-08-02T04:44:41.715Z,1003.857666
2022-08-02T04:45:37.972Z,1003.780151
2022-08-02T04:46:38.564Z,1003.806885
2022-08-02T04:48:37.467Z,1003.810181
2022-08-02T04:49:40.419Z,1003.787048
2022-08-02T04:50:43.126Z,1003.840393
2022-08-02T04:51:44.943Z,1003.778809
2022-08-02T04:52:45.925Z,1003.832214
2022-08-02T04:53:41.041Z,1003.811279
2022-08-02T04:55:06.222Z,1003.891235
2022-08-02T04:55:47.076Z,1003.8703
2022-08-02T04:56:47.154Z,1003.863525
2022-08-02T04:57:52.585Z,1003.807678
2022-08-02T04:57:53.363Z,1003.807678
2022-08-02T04:58:47.210Z,1003.903931
2022-08-02T04:59:49.450Z,1003.893433
2022-08-02T04:59:54.600Z,1003.893433
2022-08-02T05:00:49.483Z,1003.907471
2022-08-02T05:01:48.458Z,1003.921265
2022-08-02T05:02:49.759Z,1003.961853
2022-08-02T05:03:46.807Z,1003.993286
2022-08-02T05:04:45.430Z,1003.939941
2022-08-02T05:05:40.775Z,1003.931702
2022-08-02T05:06:40.864Z,1003.905029
2022-08-02T05:07:38.952Z,1003.974548
2022-08-02T05:08:40.956Z,1003.939941
2022-08-02T05:09:38.917Z,1003.934204
2022-08-02T05:10:40.152Z,1003.942139
2022-08-02T05:11:38.704Z,1003.971252
2022-08-02T05:12:34.411Z,1003.950378
2022-08-02T05:13:36.064Z,1003.960754
2022-08-02T05:13:58.469Z,1003.960754
2022-08-02T05:13:58.863Z,1003.960754
2022-08-02T05:14:35.771Z,1003.897034
2022-08-02T05:15:33.378Z,1003.90033
2022-08-02T05:16:32.351Z,1003.914368
2022-08-02T05:17:29.289Z,1003.858582
2022-08-02T05:18:33.968Z,1003.885254
2022-08-02T05:19:30.417Z,1003.818176
2022-08-02T05:20:30.118Z,1003.881897
2022-08-02T05:21:29.015Z,1003.857483
2022-08-02T05:22:25.143Z,1003.87616
2022-08-02T05:23:25.320Z,1003.910767
2022-08-02T05:24:20.744Z,1003.939941
2022-08-02T05:25:25.183Z,1003.939941
2022-08-02T05:26:18.674Z,1003.886536
2022-08-02T05:27:22.208Z,1003.886536
2022-08-02T05:28:14.785Z,1003.898132
2022-08-02T05:29:18.235Z,1003.943176
2022-08-02T05:30:11.718Z,1003.916565
2022-08-02T05:30:45.372Z,1003.914368
2022-08-02T05:31:43.752Z,1003.874756
2022-08-02T05:32:41.743Z,1003.845947
2022-08-02T05:34:26.106Z,1003.930298
2022-08-02T05:35:06.489Z,1003.869995
2022-08-02T05:36:04.586Z,1003.889465
2022-08-02T05:37:04.117Z,1003.908203
2022-08-02T05:37:09.735Z,1003.908203
2022-08-02T05:37:59.236Z,1003.903442
2022-08-02T05:38:59.027Z,1003.930176
2022-08-02T05:39:05.012Z,1003.930176
2022-08-02T05:39:56.942Z,1003.90094
2022-08-02T05:40:55.023Z,1003.997498
2022-08-02T05:41:51.463Z,1003.941956
2022-08-02T05:42:46.615Z,1003.886108
2022-08-02T05:43:46.224Z,1003.878113
2022-08-02T05:44:41.825Z,1003.95813
2022-08-02T05:45:41.157Z,1003.923279
2022-08-02T05:46:35.787Z,1003.970886
2022-08-02T05:47:37.084Z,1003.95813
2022-08-02T05:48:34.246Z,1003.886108
2022-08-02T05:49:32.372Z,1003.933777
2022-08-02T05:50:30.661Z,1003.923279
2022-08-02T05:51:25.112Z,1003.904846
2022-08-02T05:52:27.212Z,1003.824829
2022-08-02T05:53:19.741Z,1003.854675
2022-08-02T05:54:19.298Z,1003.825806
2022-08-02T05:55:17.421Z,1003.799133
2022-08-02T05:56:14.174Z,1003.866272
2022-08-02T05:57:11.556Z,1003.810608
2022-08-02T05:59:06.850Z,1003.885925
2022-08-02T06:00:06.539Z,1003.838257
2022-08-02T06:01:01.623Z,1003.841492
2022-08-02T06:02:01.131Z,1003.830994
2022-08-02T06:02:56.454Z,1003.735779
2022-08-02T06:03:59.765Z,1003.866882
2022-08-02T06:04:53.009Z,1003.792664
2022-08-02T06:05:54.333Z,1003.787842
2022-08-02T06:06:47.949Z,1003.748108
2022-08-02T06:08:33.185Z,1003.771851
2022-08-02T06:09:12.640Z,1003.626221
2022-08-02T06:10:12.661Z,1003.678284
2022-08-02T06:11:07.679Z,1003.718689
2022-08-02T06:12:04.881Z,1003.734863
2022-08-02T06:13:04.390Z,1003.726868
2022-08-02T06:13:59.409Z,1003.753601
2022-08-02T06:14:58.080Z,1003.812683
2022-08-02T06:15:56.143Z,1003.756714
2022-08-02T06:16:50.799Z,1003.799683
2022-08-02T06:17:50.615Z,1003.706787
2022-08-02T06:18:52.503Z,1003.687988
2022-08-02T06:19:51.839Z,1003.701965
2022-08-02T06:20:47.503Z,1003.721252
2022-08-02T06:22:31.753Z,1003.716431
2022-08-02T06:22:32.032Z,1003.716431
2022-08-02T06:22:37.543Z,1003.716431
2022-08-02T06:22:43.721Z,1003.715027
2022-08-02T06:23:38.678Z,1003.764709
2022-08-02T06:24:40.941Z,1003.724854
2022-08-02T06:25:49.620Z,1003.789673
2022-08-02T06:25:49.985Z,1003.789673
2022-08-02T06:25:50.888Z,1003.789673
2022-08-02T06:26:36.030Z,1003.782471
2022-08-02T06:27:31.250Z,1003.684326
2022-08-02T06:29:28.498Z,1003.714355
2022-08-02T06:30:23.793Z,1003.73291
2022-08-02T06:31:23.978Z,1003.656067
2022-08-02T06:32:19.254Z,1003.661743
2022-08-02T06:34:14.200Z,1003.654236
2022-08-02T06:35:13.752Z,1003.678589
2022-08-02T06:36:08.711Z,1003.651855
2022-08-02T06:37:08.815Z,1003.647034
2022-08-02T06:39:03.961Z,1003.65564
2022-08-02T06:39:59.348Z,1003.653381
2022-08-02T06:40:59.258Z,1003.658997
2022-08-02T06:41:54.506Z,1003.635315
2022-08-02T06:43:18.207Z,1003.665283
2022-08-02T06:43:58.508Z,1003.737976
2022-08-02T06:44:58.022Z,1003.666748
2022-08-02T06:45:56.828Z,1003.664063
2022-08-02T06:47:08.329Z,1003.664063
2022-08-02T06:47:09.269Z,1003.664063
2022-08-02T06:47:10.872Z,1003.697021
2022-08-02T06:47:11.634Z,1003.697021
2022-08-02T06:47:11.970Z,1003.697021
2022-08-02T06:47:54.912Z,1003.719543
2022-08-02T06:48:51.505Z,1003.610779
2022-08-02T06:49:54.162Z,1003.665222
2022-08-02T06:50:49.031Z,1003.654663
2022-08-02T06:51:48.484Z,1003.633545
2022-08-02T06:53:42.792Z,1003.6203
2022-08-02T06:54:45.940Z,1003.601746
2022-08-02T06:55:43.347Z,1003.580627
2022-08-02T06:56:40.645Z,1003.653198
2022-08-02T06:57:36.821Z,1003.757874
2022-08-02T06:58:38.053Z,1003.752869
2022-08-02T06:59:33.784Z,1003.705017
2022-08-02T07:00:35.084Z,1003.726746
2022-08-02T07:01:38.676Z,1003.749084
2022-08-02T07:01:38.817Z,1003.749084
2022-08-02T07:02:30.719Z,1003.706543
2022-08-02T07:03:30.833Z,1003.779236
2022-08-02T07:04:26.729Z,1003.710022
2022-08-02T07:05:27.661Z,1003.734436
2022-08-02T07:06:23.926Z,1003.686401
2022-08-02T07:07:22.292Z,1003.726746
2022-08-02T07:08:22.847Z,1003.673096
2022-08-02T07:09:20.929Z,1003.686951
2022-08-02T07:10:20.004Z,1003.70874
2022-08-02T07:11:16.117Z,1003.711548
2022-08-02T07:12:19.949Z,1003.717102
2022-08-02T07:13:15.113Z,1003.73877
2022-08-02T07:14:18.024Z,1003.749817
2022-08-02T07:15:11.673Z,1003.736877
2022-08-02T07:16:15.275Z,1003.764221
2022-08-02T07:17:10.378Z,1003.721619
2022-08-02T07:19:07.763Z,1003.76532
2022-08-02T07:20:11.501Z,1003.741394
2022-08-02T07:21:05.845Z,1003.701538
2022-08-02T07:22:33.305Z,1003.685791
2022-08-02T07:23:13.327Z,1003.715454
2022-08-02T07:24:13.910Z,1003.667725
2022-08-02T07:25:09.765Z,1003.582214
2022-08-02T07:26:10.546Z,1003.638916
2022-08-02T07:27:11.522Z,1003.705933
2022-08-02T07:27:12.540Z,1003.705933
2022-08-02T07:28:05.170Z,1003.765015
2022-08-02T07:29:05.734Z,1003.749207
2022-08-02T07:30:01.917Z,1003.741699
2022-08-02T07:31:02.488Z,1003.645142
2022-08-02T07:31:58.645Z,1003.701782
2022-08-02T07:33:56.092Z,1003.661865
2022-08-02T07:34:56.835Z,1003.767029
2022-08-02T07:35:53.156Z,1003.670715
2022-08-02T07:36:54.266Z,1003.673462
2022-08-02T07:38:51.731Z,1003.703491
2022-08-02T07:39:48.419Z,1003.642212
2022-08-02T07:40:49.366Z,1003.661377
2022-08-02T07:41:45.748Z,1003.760681
2022-08-02T07:43:44.182Z,1003.766418
2022-08-02T07:44:49.122Z,1003.691345
2022-08-02T07:45:54.216Z,1003.726563
2022-08-02T07:45:55.751Z,1003.726563
2022-08-02T07:45:59.668Z,1003.726563
2022-08-02T07:46:43.964Z,1003.705383
2022-08-02T07:47:40.492Z,1003.694824
2022-08-02T07:49:38.250Z,1003.68158
2022-08-02T07:50:37.628Z,1003.684448
2022-08-02T07:51:41.111Z,1003.662964
2022-08-02T07:52:35.619Z,1003.598572
2022-08-02T07:53:50.757Z,1003.606628
2022-08-02T07:53:50.771Z,1003.606628
2022-08-02T07:53:51.273Z,1003.606628
2022-08-02T07:54:36.616Z,1003.633606
2022-08-02T07:55:39.641Z,1003.601563
2022-08-02T07:55:39.726Z,1003.601563
2022-08-02T07:56:35.329Z,1003.644714
2022-08-02T07:57:33.316Z,1003.575134
2022-08-02T07:59:30.853Z,1003.521484
2022-08-02T08:00:35.057Z,1003.553772
2022-08-02T08:01:29.465Z,1003.591431
2022-08-02T08:02:33.346Z,1003.519043
2022-08-02T08:03:27.974Z,1003.508301
2022-08-02T08:04:29.644Z,1003.564514
2022-08-02T08:05:26.477Z,1003.508301
2022-08-02T08:06:28.926Z,1003.476013
2022-08-02T08:08:05.084Z,1003.497498
2022-08-02T08:09:03.200Z,1003.459717
2022-08-02T08:10:04.823Z,1003.486389
2022-08-02T08:11:02.140Z,1003.470093
2022-08-02T08:12:04.188Z,1003.502258
2022-08-02T08:13:28.958Z,1003.524048
2022-08-02T08:14:13.438Z,1003.567017
2022-08-02T08:14:16.833Z,1003.567017
2022-08-02T08:15:10.737Z,1003.550781
2022-08-02T08:16:06.728Z,1003.574768
2022-08-02T08:17:05.334Z,1003.531738
2022-08-02T08:18:05.745Z,1003.529358
2022-08-02T08:19:01.885Z,1003.475464
2022-08-02T08:20:02.469Z,1003.464661
2022-08-02T08:20:58.541Z,1003.534668
2022-08-02T08:21:59.222Z,1003.453918
2022-08-02T08:22:55.541Z,1003.515625
2022-08-02T08:23:56.304Z,1003.486145
2022-08-02T08:24:52.919Z,1003.407898
2022-08-02T08:25:50.924Z,1003.472351
2022-08-02T08:26:49.440Z,1003.488464
2022-08-02T08:27:53.217Z,1003.469666
2022-08-02T08:29:48.132Z,1003.431885
2022-08-02T08:30:44.349Z,1003.391235
2022-08-02T08:31:44.706Z,1003.442505
2022-08-02T08:32:40.458Z,1003.480164
2022-08-02T08:34:39.676Z,1003.420959
2022-08-02T08:35:35.739Z,1003.391113
2022-08-02T08:36:39.316Z,1003.434082
2022-08-02T08:37:32.955Z,1003.412476
2022-08-02T08:38:36.400Z,1003.369202
2022-08-02T08:39:30.536Z,1003.350525
2022-08-02T08:40:33.615Z,1003.331238
2022-08-02T08:41:27.927Z,1003.398621
2022-08-02T08:42:28.613Z,1003.384827
2022-08-02T08:44:06.873Z,1003.357727
2022-08-02T08:44:46.642Z,1003.381409
2022-08-02T08:45:44.823Z,1003.375916
2022-08-02T08:45:55.868Z,1003.375916
2022-08-02T08:45:55.992Z,1003.375916
2022-08-02T08:46:43.515Z,1003.367737
2022-08-02T08:47:44.727Z,1003.357178
2022-08-02T08:49:39.219Z,1003.37561
2022-08-02T08:49:52.565Z,1003.37561
2022-08-02T08:49:52.774Z,1003.37561
2022-08-02T08:50:40.211Z,1003.485962
2022-08-02T08:51:35.981Z,1003.407471
2022-08-02T08:52:36.532Z,1003.364502
2022-08-02T08:53:36.958Z,1003.418457
2022-08-02T08:54:33.047Z,1003.418457
2022-08-02T08:55:28.494Z,1003.388855
2022-08-02T08:56:28.908Z,1003.361877
2022-08-02T08:57:24.433Z,1003.434448
2022-08-02T08:59:21.509Z,1003.41803
2022-08-02T09:00:21.633Z,1003.369446
2022-08-02T09:01:17.493Z,1003.385559
2022-08-02T09:02:22.563Z,1003.442017
2022-08-02T09:02:26.159Z,1003.442017
2022-08-02T09:02:28.591Z,1003.442017
2022-08-02T09:04:12.103Z,1003.428284
2022-08-02T09:05:12.562Z,1003.406555
2022-08-02T09:06:08.818Z,1003.398682
2022-08-02T09:07:08.877Z,1003.309692
2022-08-02T09:09:07.385Z,1003.355957
2022-08-02T09:10:00.760Z,1003.283142
2022-08-02T09:10:58.329Z,1003.315247
2022-08-02T09:11:56.736Z,1003.361267
2022-08-02T09:13:54.056Z,1003.318176
2022-08-02T09:14:50.416Z,1003.283142
2022-08-02T09:15:49.555Z,1003.29126
2022-08-02T09:16:45.049Z,1003.202271
2022-08-02T09:17:43.583Z,1003.320862
2022-08-02T09:18:43.390Z,1003.237427
2022-08-02T09:19:38.798Z,1003.269531
2022-08-02T09:19:45.855Z,1003.269531
2022-08-02T09:20:39.432Z,1003.247864
2022-08-02T09:21:34.819Z,1003.215332
2022-08-02T09:22:37.581Z,1003.271851
2022-08-02T09:23:30.317Z,1003.180237
2022-08-02T09:24:32.986Z,1003.269226
2022-08-02T09:25:26.004Z,1003.231384
2022-08-02T09:26:28.727Z,1003.274475
2022-08-02T09:27:52.541Z,1003.220642
2022-08-02T09:29:31.985Z,1003.233765
2022-08-02T09:30:31.558Z,1003.231079
2022-08-02T09:31:27.093Z,1003.198486
2022-08-02T09:32:27.566Z,1003.228149
2022-08-02T09:34:24.054Z,1003.257996
2022-08-02T09:35:19.595Z,1003.284912
2022-08-02T09:36:20.019Z,1003.239014
2022-08-02T09:37:15.551Z,1003.233337
2022-08-02T09:39:11.643Z,1003.263306
2022-08-02T09:40:12.277Z,1003.263306
2022-08-02T09:41:08.343Z,1003.228149
2022-08-02T09:42:08.847Z,1003.295471
2022-08-02T09:44:07.723Z,1003.273743
2022-08-02T09:45:01.243Z,1003.270752
2022-08-02T09:46:01.268Z,1003.289856
2022-08-02T09:46:56.720Z,1003.278992
2022-08-02T09:47:56.945Z,1003.284546
2022-08-02T09:48:52.730Z,1003.276428
2022-08-02T09:49:56.713Z,1003.295471
2022-08-02T09:50:52.250Z,1003.327637
2022-08-02T09:51:48.179Z,1003.289856
2022-08-02T09:52:50.977Z,1003.235962
2022-08-02T09:53:44.565Z,1003.284546
2022-08-02T09:54:47.226Z,1003.335449
2022-08-02T09:55:40.109Z,1003.327637
2022-08-02T09:56:43.335Z,1003.289856
2022-08-02T09:57:36.760Z,1003.297729
2022-08-02T09:59:35.055Z,1003.351563
2022-08-02T10:00:50.716Z,1003.214233
2022-08-02T10:00:51.841Z,1003.214233
2022-08-02T10:00:52.479Z,1003.214233
2022-08-02T10:01:37.177Z,1003.27594
2022-08-02T10:01:38.990Z,1003.27594
2022-08-02T10:02:30.638Z,1003.229919
2022-08-02T10:03:32.949Z,1003.345642
2022-08-02T10:03:37.255Z,1003.345642
2022-08-02T10:03:37.270Z,1003.345642
2022-08-02T10:04:27.150Z,1003.242981
2022-08-02T10:05:22.767Z,1003.237366
2022-08-02T10:06:26.320Z,1003.288574
2022-08-02T10:07:19.667Z,1003.240295
2022-08-02T10:09:16.868Z,1003.305054
2022-08-02T10:10:19.533Z,1003.264709